createdAt,value
2022-08-08T00:01:07.987Z,66.64
2022-08-08T00:06:28.663Z,66.89
2022-08-08T00:11:47.070Z,65.08
2022-08-08T00:17:23.463Z,65.73
2022-08-08T00:22:31.623Z,64.72
2022-08-08T00:27:38.777Z,64.76
2022-08-08T00:32:47.950Z,65.42
2022-08-08T00:38:17.106Z,67.08
2022-08-08T00:44:04.182Z,65.17
2022-08-08T00:49:59.341Z,66.70
2022-08-08T00:55:53.974Z,67.81
2022-08-08T01:01:11.117Z,67.31
2022-08-08T01:06:34.789Z,70.02
2022-08-08T01:12:14.486Z,70.29
2022-08-08T01:17:55.708Z,72.00
2022-08-08T01:24:03.193Z,68.36
2022-08-08T01:29:12.682Z,69.24
2022-08-08T01:34:52.169Z,71.57
2022-08-08T01:40:14.787Z,71.15
2022-08-08T01:45:56.486Z,71.06
2022-08-08T01:51:31.745Z,72.52
2022-08-08T01:56:53.725Z,71.45
2022-08-08T02:02:09.493Z,71.20
2022-08-08T02:07:24.873Z,68.98
2022-08-08T02:12:33.872Z,70.65
2022-08-08T02:17:44.840Z,72.44
2022-08-08T02:22:57.535Z,70.68
2022-08-08T02:28:04.912Z,71.25
2022-08-08T02:33:21.506Z,70.29
2022-08-08T02:38:54.087Z,68.38
2022-08-08T02:44:38.730Z,67.66
2022-08-08T02:50:17.696Z,66.50
2022-08-08T02:56:01.469Z,68.85
2022-08-08T03:01:26.628Z,74.01
2022-08-08T03:07:11.108Z,73.21
2022-08-08T03:13:02.600Z,70.73
2022-08-08T03:18:13.606Z,68.83
2022-08-08T03:23:18.153Z,70.15
2022-08-08T03:28:28.347Z,70.87
2022-08-08T03:33:58.137Z,69.88
2022-08-08T03:39:14.377Z,68.53
2022-08-08T03:44:17.862Z,69.04
2022-08-08T03:49:58.692Z,71.46
2022-08-08T03:55:02.646Z,70.79
2022-08-08T04:00:18.193Z,72.49
2022-08-08T04:05:27.363Z,72.54
2022-08-08T04:10:34.102Z,69.40
2022-08-08T04:15:39.210Z,68.95
2022-08-08T04:20:57.702Z,69.14
2022-08-08T04:26:06.656Z,74.31
2022-08-08T04:31:11.964Z,76.16
2022-08-08T04:36:34.421Z,72.36
2022-08-08T04:41:38.669Z,73.54
2022-08-08T04:46:41.155Z,74.45
2022-08-08T04:51:55.076Z,71.01
2022-08-08T04:57:01.740Z,70.27
2022-08-08T05:02:04.441Z,68.03
2022-08-08T05:07:07.101Z,65.66
2022-08-08T05:12:20.376Z,66.98
2022-08-08T05:17:53.477Z,64.20
2022-08-08T05:22:56.138Z,69.04
2022-08-08T05:28:01.933Z,67.55
2022-08-08T05:33:04.564Z,67.19
2022-08-08T05:38:30.137Z,65.80
2022-08-08T05:43:39.978Z,67.33
2022-08-08T05:48:58.953Z,67.48
2022-08-08T05:54:29.000Z,66.61
2022-08-08T06:00:00.683Z,66.30
2022-08-08T06:04:56.033Z,66.93
2022-08-08T06:10:02.013Z,66.32
2022-08-08T06:15:08.744Z,64.06
2022-08-08T06:20:16.342Z,63.37
2022-08-08T06:25:18.961Z,62.26
2022-08-08T06:30:44.239Z,61.55
2022-08-08T06:36:08.244Z,61.21
2022-08-08T06:41:13.385Z,60.04
2022-08-08T06:46:23.765Z,58.76
2022-08-08T06:51:31.165Z,56.01
2022-08-08T06:56:51.541Z,59.04
2022-08-08T07:02:26.323Z,58.47
2022-08-08T07:07:37.401Z,58.41
2022-08-08T07:12:42.944Z,59.45
2022-08-08T07:18:01.923Z,58.34
2022-08-08T07:23:23.326Z,57.15
2022-08-08T07:28:31.559Z,57.89
2022-08-08T07:33:37.951Z,55.06
2022-08-08T07:38:57.646Z,54.06
2022-08-08T07:44:38.086Z,54.43
2022-08-08T07:49:29.832Z,51.97
2022-08-08T07:54:40.778Z,51.71
2022-08-08T07:59:52.335Z,52.57
2022-08-08T08:05:03.826Z,50.92
2022-08-08T08:10:12.711Z,51.16
2022-08-08T08:15:21.638Z,50.76
2022-08-08T08:20:30.997Z,51.26
2022-08-08T08:25:43.702Z,50.36
2022-08-08T08:30:49.320Z,49.99
2022-08-08T08:36:18.661Z,49.55
2022-08-08T08:41:20.264Z,49.17
2022-08-08T08:46:28.634Z,50.29
2022-08-08T08:51:32.974Z,49.60
2022-08-08T08:56:37.465Z,47.81
2022-08-08T09:01:45.622Z,48.72
2022-08-08T09:06:51.674Z,46.63
2022-08-08T09:12:01.451Z,46.02
2022-08-08T09:17:14.222Z,45.85
2022-08-08T09:22:26.116Z,45.37
2022-08-08T09:27:41.876Z,44.37
2022-08-08T09:33:12.640Z,42.08
2022-08-08T09:38:31.999Z,42.45
2022-08-08T09:44:11.387Z,40.53
2022-08-08T09:49:41.042Z,42.35
2022-08-08T09:54:44.111Z,43.27
2022-08-08T10:00:14.659Z,39.87
2022-08-08T10:05:22.835Z,40.68
2022-08-08T10:10:30.305Z,38.94
2022-08-08T10:15:39.173Z,39.96
2022-08-08T10:20:51.383Z,39.42
2022-08-08T10:26:04.680Z,39.07
2022-08-08T10:31:48.557Z,36.74
2022-08-08T10:36:52.953Z,33.73
2022-08-08T10:42:16.638Z,33.87
2022-08-08T10:47:21.552Z,32.49
2022-08-08T10:52:30.693Z,30.09
2022-08-08T10:57:50.384Z,28.75
2022-08-08T11:02:56.589Z,31.79
2022-08-08T11:08:31.362Z,31.26
2022-08-08T11:13:28.679Z,32.22
2022-08-08T11:18:35.316Z,30.30
2022-08-08T11:23:41.985Z,31.78
2022-08-08T11:28:47.160Z,33.08
2022-08-08T11:34:01.701Z,34.29
2022-08-08T11:39:12.677Z,31.94
2022-08-08T11:44:16.866Z,33.73
2022-08-08T11:49:32.246Z,32.48
2022-08-08T11:54:44.549Z,33.82
2022-08-08T12:00:01.977Z,33.78
2022-08-08T12:05:13.198Z,33.24
2022-08-08T12:10:18.068Z,33.55
2022-08-08T12:15:29.428Z,31.81
2022-08-08T12:20:38.627Z,34.07
2022-08-08T12:25:52.485Z,35.39
2022-08-08T12:31:06.538Z,35.14
2022-08-08T12:36:13.721Z,32.92
2022-08-08T12:41:35.114Z,32.18
2022-08-08T12:46:40.710Z,32.21
2022-08-08T12:51:50.137Z,32.83
2022-08-08T12:57:01.532Z,33.98
2022-08-08T13:02:08.009Z,34.35
2022-08-08T13:07:16.947Z,33.89
2022-08-08T13:12:37.710Z,33.43
2022-08-08T13:18:08.261Z,34.25
2022-08-08T13:23:30.955Z,33.41
2022-08-08T13:28:32.020Z,34.14
2022-08-08T13:33:42.259Z,33.45
2022-08-08T13:38:45.942Z,31.58
2022-08-08T13:43:50.999Z,32.46
2022-08-08T13:49:11.579Z,33.09
2022-08-08T13:54:21.676Z,33.63
2022-08-08T13:59:32.894Z,36.07
2022-08-08T14:04:37.394Z,34.49
2022-08-08T14:10:05.071Z,32.63
2022-08-08T14:15:24.750Z,32.04
2022-08-08T14:20:56.713Z,32.92
2022-08-08T14:26:10.525Z,34.97
2022-08-08T14:31:20.414Z,33.84
2022-08-08T14:36:34.969Z,32.75
2022-08-08T14:41:45.357Z,33.26
2022-08-08T14:47:00.193Z,34.09
2022-08-08T14:52:09.925Z,33.57
2022-08-08T14:57:16.430Z,33.60
2022-08-08T15:02:25.576Z,34.22
2022-08-08T15:07:39.374Z,32.83
2022-08-08T15:12:44.574Z,32.64
2022-08-08T15:17:48.393Z,31.07
2022-08-08T15:22:52.343Z,32.37
2022-08-08T15:28:32.556Z,32.81
2022-08-08T15:33:34.997Z,33.04
2022-08-08T15:38:40.639Z,33.25
2022-08-08T15:44:00.853Z,33.74
2022-08-08T15:49:04.840Z,34.58
2022-08-08T15:54:37.364Z,33.94
2022-08-08T16:00:05.469Z,33.85
2022-08-08T16:04:54.672Z,34.83
2022-08-08T16:13:14.267Z,34.54
2022-08-08T16:15:25.022Z,33.83
2022-08-08T16:20:35.495Z,33.89
2022-08-08T16:25:46.252Z,34.96
2022-08-08T16:30:57.236Z,35.06
2022-08-08T16:36:00.902Z,35.28
2022-08-08T16:41:04.752Z,35.60
2022-08-08T16:46:36.356Z,35.30
2022-08-08T16:55:06.466Z,35.37
2022-08-08T16:57:03.560Z,35.34
2022-08-08T17:02:42.972Z,34.41
2022-08-08T17:07:42.363Z,36.22
2022-08-08T17:12:53.025Z,35.78
2022-08-08T17:18:02.911Z,35.96
2022-08-08T17:23:18.130Z,36.87
2022-08-08T17:28:34.888Z,36.85
2022-08-08T17:34:48.382Z,37.08
2022-08-08T17:39:05.535Z,35.65
2022-08-08T17:44:26.988Z,36.27
2022-08-08T17:49:42.829Z,36.33
2022-08-08T17:54:46.493Z,37.27
2022-08-08T17:59:58.578Z,37.53
2022-08-08T18:05:04.991Z,37.09
2022-08-08T18:10:08.486Z,38.43
2022-08-08T18:15:12.575Z,37.81
2022-08-08T18:20:43.932Z,38.30
2022-08-08T18:25:38.119Z,37.73
2022-08-08T18:30:43.273Z,38.51
2022-08-08T18:35:48.483Z,38.17
2022-08-08T18:40:51.496Z,39.34
2022-08-08T18:46:56.600Z,39.85
2022-08-08T18:51:48.319Z,40.62
2022-08-08T18:56:44.185Z,41.50
2022-08-08T19:02:14.282Z,42.62
2022-08-08T19:07:10.453Z,42.11
2022-08-08T19:12:13.469Z,41.88
2022-08-08T19:17:28.859Z,43.54
2022-08-08T19:22:39.976Z,45.34
2022-08-08T19:27:55.894Z,47.10
2022-08-08T19:33:01.600Z,48.48
2022-08-08T19:38:04.475Z,49.39
2022-08-08T19:43:11.582Z,50.38
2022-08-08T19:48:28.969Z,50.64
2022-08-08T19:53:53.328Z,50.83
2022-08-08T19:58:56.062Z,51.72
2022-08-08T20:04:03.455Z,52.55
2022-08-08T20:09:09.047Z,53.00
2022-08-08T20:14:32.962Z,53.37
2022-08-08T20:19:42.354Z,53.31
2022-08-08T20:24:46.157Z,50.66
2022-08-08T20:30:00.401Z,52.49
2022-08-08T20:35:06.276Z,54.25
2022-08-08T20:40:11.978Z,54.48
2022-08-08T20:45:54.956Z,56.04
2022-08-08T20:50:43.998Z,56.89
2022-08-08T20:55:51.137Z,57.88
2022-08-08T21:00:53.905Z,58.33
2022-08-08T21:05:58.771Z,58.80
2022-08-08T21:11:02.117Z,59.01
2022-08-08T21:16:18.152Z,57.18
2022-08-08T21:21:39.835Z,59.24
2022-08-08T21:26:44.656Z,60.01
2022-08-08T21:31:58.899Z,59.07
2022-08-08T21:37:11.410Z,60.94
2022-08-08T21:42:18.908Z,59.64
2022-08-08T21:48:04.176Z,60.96
2022-08-08T21:54:36.673Z,60.77
2022-08-08T21:58:15.686Z,62.62
2022-08-08T22:03:20.245Z,62.90
2022-08-08T22:08:24.519Z,63.52
2022-08-08T22:13:27.018Z,63.85
2022-08-08T22:18:52.988Z,64.18
2022-08-08T22:23:58.086Z,63.78
2022-08-08T22:29:14.136Z,65.12
2022-08-08T22:34:27.030Z,65.37
2022-08-08T22:39:45.717Z,64.02
2022-08-08T22:44:54.135Z,65.71
2022-08-08T22:50:00.033Z,67.57
2022-08-08T22:55:06.321Z,65.69
2022-08-08T23:00:13.343Z,66.29
2022-08-08T23:05:16.290Z,66.42
2022-08-08T23:10:21.559Z,68.17
2022-08-08T23:16:41.202Z,66.99
2022-08-08T23:20:54.549Z,66.11
2022-08-08T23:25:59.070Z,68.09
2022-08-08T23:31:02.298Z,69.42
2022-08-08T23:36:07.970Z,69.08
2022-08-08T23:41:17.495Z,69.08
2022-08-08T23:49:07.322Z,69.94
2022-08-08T23:52:07.191Z,68.71
2022-08-08T23:57:25.561Z,68.19
